createdAt,value
2018-05-17T00:01:13.986Z,90.59
2018-05-17T00:03:42.373Z,89.56
2018-05-17T00:06:10.778Z,89.53
2018-05-17T00:08:39.174Z,88.67
2018-05-17T00:11:07.610Z,89.82
2018-05-17T00:13:36.018Z,87.57
2018-05-17T00:16:05.178Z,87.63
2018-05-17T00:18:33.590Z,88.54
2018-05-17T00:21:01.978Z,87.72
2018-05-17T00:23:30.371Z,88.92
2018-05-17T00:25:58.762Z,88.26
2018-05-17T00:28:27.242Z,87.20
2018-05-17T00:30:55.636Z,88.37
2018-05-17T00:33:24.058Z,88.00
2018-05-17T00:35:52.506Z,87.64
2018-05-17T00:38:20.915Z,87.25
2018-05-17T00:40:50.062Z,86.00
2018-05-17T00:43:18.454Z,87.53
2018-05-17T00:45:46.850Z,87.41
2018-05-17T00:48:15.288Z,87.96
2018-05-17T00:50:43.797Z,87.29
2018-05-17T00:53:33.970Z,86.56
2018-05-17T00:56:02.398Z,86.15
2018-05-17T00:58:31.557Z,84.64
2018-05-17T01:00:59.963Z,85.82
2018-05-17T01:03:28.365Z,84.09
2018-05-17T01:05:57.532Z,84.65
2018-05-17T01:08:25.914Z,84.33
2018-05-17T01:10:54.317Z,83.92
2018-05-17T01:13:22.736Z,83.90
2018-05-17T01:15:51.179Z,86.35
2018-05-17T01:18:19.557Z,82.79
2018-05-17T01:20:47.955Z,84.44
2018-05-17T01:23:16.359Z,84.05
2018-05-17T01:25:45.561Z,86.44
2018-05-17T01:28:14.691Z,86.97
2018-05-17T01:30:43.097Z,84.12
2018-05-17T01:33:11.478Z,85.05
2018-05-17T01:35:40.115Z,84.70
2018-05-17T01:38:27.190Z,83.83
2018-05-17T01:40:56.359Z,84.27
2018-05-17T01:43:24.836Z,84.86
2018-05-17T01:45:53.221Z,86.28
2018-05-17T01:48:21.607Z,84.02
2018-05-17T01:50:49.997Z,86.46
2018-05-17T01:53:18.374Z,87.44
2018-05-17T01:55:46.845Z,85.02
2018-05-17T01:58:16.094Z,85.81
2018-05-17T02:00:44.489Z,83.90
2018-05-17T02:03:12.874Z,84.79
2018-05-17T02:05:41.277Z,85.15
2018-05-17T02:08:09.647Z,85.52
2018-05-17T02:10:38.019Z,85.66
2018-05-17T02:13:06.402Z,84.67
2018-05-17T02:15:34.777Z,86.42
2018-05-17T02:18:03.923Z,87.16
2018-05-17T02:20:33.066Z,87.86
2018-05-17T02:23:01.441Z,88.29
2018-05-17T02:25:29.870Z,86.46
2018-05-17T02:27:59.026Z,85.36
2018-05-17T02:30:27.413Z,87.13
2018-05-17T02:32:56.617Z,86.20
2018-05-17T02:35:24.998Z,85.70
2018-05-17T02:37:53.405Z,86.66
2018-05-17T02:40:21.789Z,85.93
2018-05-17T02:42:50.185Z,84.82
2018-05-17T02:45:18.566Z,85.41
2018-05-17T02:47:47.758Z,84.28
2018-05-17T02:50:16.154Z,85.58
2018-05-17T02:52:44.514Z,86.54
2018-05-17T02:55:13.675Z,84.81
2018-05-17T02:57:42.041Z,86.21
2018-05-17T03:00:11.218Z,84.52
2018-05-17T03:02:39.616Z,84.04
2018-05-17T03:05:08.745Z,85.86
2018-05-17T03:07:37.131Z,84.46
2018-05-17T03:10:05.535Z,84.64
2018-05-17T03:12:33.894Z,84.87
2018-05-17T03:15:02.357Z,83.56
2018-05-17T03:17:31.525Z,82.44
2018-05-17T03:19:59.893Z,82.65
2018-05-17T03:22:28.274Z,84.18
2018-05-17T03:24:56.658Z,85.49
2018-05-17T03:27:25.037Z,83.47
2018-05-17T03:29:53.544Z,85.47
2018-05-17T03:32:21.913Z,84.18
2018-05-17T03:34:50.294Z,85.47
2018-05-17T03:37:19.443Z,86.70
2018-05-17T03:39:48.595Z,85.34
2018-05-17T03:42:16.978Z,86.59
2018-05-17T03:44:45.409Z,85.34
2018-05-17T03:47:13.818Z,85.86
2018-05-17T03:49:42.197Z,85.25
2018-05-17T03:52:10.610Z,86.08
2018-05-17T03:54:38.987Z,85.77
2018-05-17T03:57:07.370Z,86.19
2018-05-17T03:59:35.889Z,85.83
2018-05-17T04:02:22.064Z,85.63
2018-05-17T04:05:08.963Z,85.85
2018-05-17T04:07:37.439Z,85.34
2018-05-17T04:10:05.825Z,85.53
2018-05-17T04:12:34.223Z,84.99
2018-05-17T04:15:02.673Z,84.42
2018-05-17T04:17:31.065Z,85.09
2018-05-17T04:19:59.446Z,84.64
2018-05-17T04:22:27.833Z,84.53
2018-05-17T04:24:56.213Z,84.71
2018-05-17T04:27:24.610Z,84.02
2018-05-17T04:29:52.986Z,84.07
2018-05-17T04:32:21.443Z,85.26
2018-05-17T04:34:49.837Z,85.91
2018-05-17T04:37:18.204Z,85.85
2018-05-17T04:39:46.599Z,85.35
2018-05-17T04:42:14.975Z,86.01
2018-05-17T04:44:43.365Z,84.84
2018-05-17T04:47:11.855Z,84.38
2018-05-17T04:49:40.146Z,83.89
2018-05-17T04:52:08.510Z,82.91
2018-05-17T04:54:36.910Z,82.76
2018-05-17T04:57:05.315Z,83.59
2018-05-17T04:59:33.702Z,83.74
2018-05-17T05:02:02.122Z,83.62
2018-05-17T05:04:31.266Z,79.48
2018-05-17T05:06:59.659Z,80.64
2018-05-17T05:09:28.132Z,81.33
2018-05-17T05:11:57.278Z,80.50
2018-05-17T05:14:26.449Z,83.20
2018-05-17T05:16:54.824Z,82.46
2018-05-17T05:19:23.230Z,81.06
2018-05-17T05:21:51.618Z,80.94
2018-05-17T05:24:20.010Z,80.00
2018-05-17T05:26:49.194Z,81.54
2018-05-17T05:29:17.597Z,79.43
2018-05-17T05:31:46.766Z,79.22
2018-05-17T05:34:15.207Z,78.29
2018-05-17T05:36:43.597Z,76.85
2018-05-17T05:39:12.011Z,79.46
2018-05-17T05:41:40.398Z,79.32
2018-05-17T05:44:08.779Z,76.68
2018-05-17T05:46:37.174Z,76.84
2018-05-17T05:49:05.575Z,78.10
2018-05-17T05:51:34.749Z,74.30
2018-05-17T05:54:03.148Z,74.92
2018-05-17T05:56:31.557Z,76.54
2018-05-17T05:58:59.951Z,76.60
2018-05-17T06:01:28.351Z,78.33
2018-05-17T06:03:56.736Z,77.42
2018-05-17T06:06:25.121Z,75.27
2018-05-17T06:08:53.544Z,75.62
2018-05-17T06:11:21.971Z,73.95
2018-05-17T06:13:50.379Z,75.05
2018-05-17T06:16:18.777Z,73.00
2018-05-17T06:18:47.182Z,71.10
2018-05-17T06:21:15.677Z,70.48
2018-05-17T06:23:44.884Z,72.97
2018-05-17T06:26:13.217Z,69.32
2018-05-17T06:28:41.631Z,69.48
2018-05-17T06:31:10.025Z,71.20
2018-05-17T06:33:39.214Z,70.92
2018-05-17T06:36:07.665Z,68.81
2018-05-17T06:38:36.026Z,67.28
2018-05-17T06:41:04.429Z,67.95
2018-05-17T06:43:32.830Z,68.57
2018-05-17T06:46:02.049Z,66.85
2018-05-17T06:48:30.437Z,66.99
2018-05-17T06:50:58.831Z,68.32
2018-05-17T06:53:28.002Z,65.79
2018-05-17T06:55:56.412Z,66.25
2018-05-17T06:58:24.809Z,67.76
2018-05-17T07:00:54.003Z,68.25
2018-05-17T07:03:22.397Z,64.71
2018-05-17T07:05:51.610Z,64.75
2018-05-17T07:08:20.039Z,66.53
2018-05-17T07:10:48.490Z,65.06
2018-05-17T07:13:16.942Z,65.07
2018-05-17T07:15:46.139Z,67.28
2018-05-17T07:18:14.725Z,69.34
2018-05-17T07:20:43.706Z,66.73
2018-05-17T07:23:12.101Z,64.32
2018-05-17T07:25:40.491Z,65.99
2018-05-17T07:28:09.706Z,69.05
2018-05-17T07:30:38.856Z,64.19
2018-05-17T07:33:07.274Z,63.90
2018-05-17T07:35:35.744Z,62.78
2018-05-17T07:38:04.131Z,63.01
2018-05-17T07:40:32.516Z,61.74
2018-05-17T07:43:00.988Z,53.38
2018-05-17T07:45:29.378Z,50.80
2018-05-17T07:47:57.759Z,51.47
2018-05-17T07:50:26.154Z,54.76
2018-05-17T07:52:54.570Z,54.81
2018-05-17T07:55:23.019Z,56.14
2018-05-17T07:57:51.419Z,62.07
2018-05-17T08:00:20.555Z,59.30
2018-05-17T08:02:48.944Z,56.36
2018-05-17T08:05:18.099Z,58.48
2018-05-17T08:07:46.478Z,52.92
2018-05-17T08:10:14.870Z,57.79
2018-05-17T08:12:44.031Z,53.74
2018-05-17T08:15:12.426Z,55.86
2018-05-17T08:17:40.813Z,56.56
2018-05-17T08:20:09.222Z,54.55
2018-05-17T08:22:37.606Z,54.41
2018-05-17T08:25:06.740Z,52.71
2018-05-17T08:27:35.122Z,52.87
2018-05-17T08:30:03.503Z,51.63
2018-05-17T08:32:31.878Z,49.10
2018-05-17T08:35:00.258Z,46.45
2018-05-17T08:37:28.650Z,43.03
2018-05-17T08:39:57.044Z,42.80
2018-05-17T08:42:25.458Z,46.05
2018-05-17T08:44:53.861Z,47.86
2018-05-17T08:47:22.285Z,47.77
2018-05-17T08:49:50.650Z,41.08
2018-05-17T08:52:20.179Z,39.45
2018-05-17T08:54:48.554Z,46.02
2018-05-17T08:57:17.029Z,50.33
2018-05-17T08:59:45.664Z,49.39
2018-05-17T09:02:14.220Z,50.13
2018-05-17T09:04:42.618Z,49.58
2018-05-17T09:07:10.994Z,48.80
2018-05-17T09:09:39.414Z,47.74
2018-05-17T09:12:07.786Z,47.95
2018-05-17T09:14:36.389Z,51.22
2018-05-17T09:17:04.852Z,49.49
2018-05-17T09:19:33.379Z,50.27
2018-05-17T09:22:02.538Z,51.27
2018-05-17T09:24:30.917Z,48.58
2018-05-17T09:26:59.310Z,46.35
2018-05-17T09:29:27.924Z,47.59
2018-05-17T09:31:56.327Z,49.28
2018-05-17T09:34:25.519Z,49.49
2018-05-17T09:36:54.685Z,44.72
2018-05-17T09:39:23.061Z,42.80
2018-05-17T09:41:51.462Z,41.54
2018-05-17T09:44:20.013Z,40.16
2018-05-17T09:46:48.467Z,45.30
2018-05-17T09:49:17.641Z,40.67
2018-05-17T09:51:46.023Z,37.10
2018-05-17T09:54:15.198Z,37.76
2018-05-17T09:56:43.634Z,37.44
2018-05-17T09:59:12.769Z,39.30
2018-05-17T10:01:41.229Z,41.90
2018-05-17T10:04:10.385Z,42.88
2018-05-17T10:06:38.756Z,38.34
2018-05-17T10:09:07.160Z,37.14
2018-05-17T10:11:35.529Z,37.58
2018-05-17T10:14:03.917Z,37.17
2018-05-17T10:16:32.567Z,37.63
2018-05-17T10:19:00.973Z,41.27
2018-05-17T10:21:29.397Z,43.65
2018-05-17T10:23:57.970Z,41.71
2018-05-17T10:26:26.348Z,37.08
2018-05-17T10:28:55.500Z,36.69
2018-05-17T10:31:23.882Z,36.95
2018-05-17T10:33:52.262Z,39.16
2018-05-17T10:36:20.672Z,38.94
2018-05-17T10:38:49.071Z,37.37
2018-05-17T10:41:17.539Z,41.48
2018-05-17T10:43:45.924Z,40.00
2018-05-17T10:46:14.323Z,38.95
2018-05-17T10:48:42.690Z,36.49
2018-05-17T10:51:11.081Z,35.92
2018-05-17T10:53:39.458Z,39.64
2018-05-17T10:56:07.849Z,38.84
2018-05-17T10:58:36.431Z,42.05
2018-05-17T11:01:04.825Z,37.98
2018-05-17T11:03:33.337Z,38.43
2018-05-17T11:06:01.719Z,38.89
2018-05-17T11:08:30.882Z,38.13
2018-05-17T11:10:59.258Z,37.25
2018-05-17T11:13:27.762Z,39.97
2018-05-17T11:15:56.142Z,41.40
2018-05-17T11:18:24.549Z,40.84
2018-05-17T11:20:52.924Z,39.43
2018-05-17T11:23:21.322Z,42.72
2018-05-17T11:25:49.740Z,39.49
2018-05-17T11:28:18.836Z,38.45
2018-05-17T11:30:47.331Z,43.66
2018-05-17T11:33:15.921Z,39.73
2018-05-17T11:35:44.306Z,39.91
2018-05-17T11:38:12.709Z,40.07
2018-05-17T11:40:41.110Z,39.24
2018-05-17T11:43:09.695Z,38.39
2018-05-17T11:45:38.082Z,37.36
2018-05-17T11:48:06.474Z,40.84
2018-05-17T11:50:34.865Z,37.74
2018-05-17T11:53:03.570Z,37.67
2018-05-17T11:55:32.718Z,37.44
2018-05-17T11:58:01.093Z,36.79
2018-05-17T12:00:29.600Z,38.06
2018-05-17T12:02:58.258Z,37.08
2018-05-17T12:05:26.646Z,37.86
2018-05-17T12:07:55.029Z,36.52
2018-05-17T12:10:23.488Z,37.68
2018-05-17T12:12:52.658Z,37.54
2018-05-17T12:15:21.046Z,39.60
2018-05-17T12:17:49.431Z,38.52
2018-05-17T12:20:17.861Z,35.52
2018-05-17T12:22:46.238Z,37.03
2018-05-17T12:25:14.631Z,37.96
2018-05-17T12:27:43.913Z,39.36
2018-05-17T12:30:12.341Z,39.36
2018-05-17T12:32:40.748Z,37.43
2018-05-17T12:35:09.286Z,37.03
2018-05-17T12:37:37.667Z,36.73
2018-05-17T12:40:06.174Z,36.23
2018-05-17T12:42:34.554Z,35.84
2018-05-17T12:45:03.003Z,36.13
2018-05-17T12:47:32.186Z,36.39
2018-05-17T12:50:01.447Z,35.39
2018-05-17T12:52:29.918Z,35.90
2018-05-17T12:54:58.369Z,36.15
2018-05-17T12:57:27.536Z,37.99
2018-05-17T12:59:55.981Z,35.08
2018-05-17T13:02:24.425Z,38.50
2018-05-17T13:04:52.813Z,35.96
2018-05-17T13:07:21.957Z,36.31
2018-05-17T13:09:50.342Z,34.54
2018-05-17T13:12:18.718Z,32.45
2018-05-17T13:14:47.117Z,32.68
2018-05-17T13:17:15.522Z,32.43
2018-05-17T13:19:44.002Z,32.84
2018-05-17T13:22:12.688Z,32.37
2018-05-17T13:24:40.823Z,32.06
2018-05-17T13:27:09.983Z,33.78
2018-05-17T13:29:38.379Z,34.75
2018-05-17T13:32:06.762Z,32.09
2018-05-17T13:34:35.202Z,32.30
2018-05-17T13:37:03.600Z,32.66
2018-05-17T13:39:31.979Z,33.47
2018-05-17T13:42:00.382Z,32.10
2018-05-17T13:44:28.771Z,32.24
2018-05-17T13:46:57.162Z,31.73
2018-05-17T13:49:25.545Z,30.27
2018-05-17T13:51:54.717Z,30.25
2018-05-17T13:54:23.281Z,31.25
2018-05-17T13:56:51.675Z,30.68
2018-05-17T13:59:20.055Z,31.40
2018-05-17T14:01:48.435Z,31.82
2018-05-17T14:04:17.599Z,35.27
2018-05-17T14:06:46.775Z,32.72
2018-05-17T14:09:15.261Z,32.74
2018-05-17T14:11:43.650Z,31.30
2018-05-17T14:14:12.066Z,31.65
2018-05-17T14:16:40.450Z,32.19
2018-05-17T14:19:09.624Z,31.37
2018-05-17T14:21:38.009Z,30.88
2018-05-17T14:24:07.164Z,30.98
2018-05-17T14:26:35.557Z,30.89
2018-05-17T14:29:03.949Z,28.79
2018-05-17T14:31:32.333Z,29.90
2018-05-17T14:34:00.772Z,31.46
2018-05-17T14:36:29.231Z,29.49
2018-05-17T14:38:58.382Z,31.07
2018-05-17T14:41:26.802Z,32.03
2018-05-17T14:43:55.204Z,29.38
2018-05-17T14:46:23.752Z,29.18
2018-05-17T14:48:52.289Z,30.47
2018-05-17T14:51:21.438Z,29.05
2018-05-17T14:53:49.903Z,29.57
2018-05-17T14:56:18.306Z,31.08
2018-05-17T14:58:46.684Z,30.23
2018-05-17T15:01:15.159Z,30.60
2018-05-17T15:03:43.505Z,28.98
2018-05-17T15:06:12.652Z,26.92
2018-05-17T15:08:41.088Z,26.52
2018-05-17T15:11:14.736Z,26.62
2018-05-17T15:13:38.770Z,27.21
2018-05-17T15:16:08.025Z,28.68
2018-05-17T15:18:36.567Z,29.47
2018-05-17T15:21:05.734Z,26.83
2018-05-17T15:23:34.117Z,27.48
2018-05-17T15:26:02.546Z,27.83
2018-05-17T15:28:31.727Z,31.29
2018-05-17T15:31:00.913Z,29.35
2018-05-17T15:33:30.074Z,30.31
2018-05-17T15:35:58.454Z,27.66
2018-05-17T15:38:26.833Z,28.53
2018-05-17T15:40:55.235Z,29.69
2018-05-17T15:43:23.654Z,28.32
2018-05-17T15:45:52.079Z,28.27
2018-05-17T15:48:20.544Z,30.92
2018-05-17T15:50:48.933Z,31.84
2018-05-17T15:53:18.843Z,33.10
2018-05-17T15:55:48.046Z,33.04
2018-05-17T15:58:17.215Z,32.18
2018-05-17T16:00:45.616Z,33.22
2018-05-17T16:03:14.014Z,34.37
2018-05-17T16:05:43.264Z,34.72
2018-05-17T16:08:11.682Z,37.50
2018-05-17T16:10:40.335Z,35.97
2018-05-17T16:13:08.769Z,38.32
2018-05-17T16:15:37.964Z,39.10
2018-05-17T16:18:06.354Z,38.42
2018-05-17T16:20:35.484Z,37.92
2018-05-17T16:23:03.889Z,39.45
2018-05-17T16:25:32.271Z,41.47
2018-05-17T16:28:00.654Z,41.39
2018-05-17T16:30:29.070Z,42.35
2018-05-17T16:32:57.668Z,40.20
2018-05-17T16:35:26.185Z,41.36
2018-05-17T16:37:54.573Z,41.18
2018-05-17T16:40:22.965Z,42.86
2018-05-17T16:42:51.605Z,43.49
2018-05-17T16:45:19.986Z,42.92
2018-05-17T16:47:49.157Z,44.18
2018-05-17T16:50:17.572Z,44.90
2018-05-17T16:52:46.800Z,44.98
2018-05-17T16:55:15.156Z,45.20
2018-05-17T16:57:43.542Z,44.26
2018-05-17T17:00:11.940Z,43.79
2018-05-17T17:02:41.287Z,44.71
2018-05-17T17:05:09.846Z,46.37
2018-05-17T17:07:38.967Z,45.07
2018-05-17T17:10:07.355Z,46.29
2018-05-17T17:12:35.758Z,45.53
2018-05-17T17:15:04.162Z,47.80
2018-05-17T17:17:34.045Z,46.77
2018-05-17T17:20:02.426Z,46.51
2018-05-17T17:22:30.809Z,47.22
2018-05-17T17:24:59.197Z,47.42
2018-05-17T17:27:27.760Z,48.01
2018-05-17T17:29:56.373Z,50.26
2018-05-17T17:32:24.766Z,47.69
2018-05-17T17:34:53.174Z,48.75
2018-05-17T17:37:21.569Z,48.41
2018-05-17T17:39:49.943Z,48.48
2018-05-17T17:42:19.861Z,49.43
2018-05-17T17:44:48.299Z,48.65
2018-05-17T17:47:16.707Z,50.25
2018-05-17T17:49:45.102Z,49.33
2018-05-17T17:52:13.526Z,49.58
2018-05-17T17:54:41.903Z,49.51
2018-05-17T17:57:10.510Z,50.18
2018-05-17T17:59:40.401Z,50.63
2018-05-17T18:02:09.584Z,49.70
2018-05-17T18:04:39.499Z,50.26
2018-05-17T18:07:07.930Z,50.76
2018-05-17T18:09:36.321Z,49.97
2018-05-17T18:12:04.813Z,51.10
2018-05-17T18:14:33.213Z,51.11
2018-05-17T18:17:01.618Z,51.28
2018-05-17T18:19:30.021Z,51.18
2018-05-17T18:21:59.200Z,50.95
2018-05-17T18:24:27.625Z,53.02
2018-05-17T18:26:56.019Z,53.57
2018-05-17T18:29:24.481Z,52.47
2018-05-17T18:31:53.641Z,52.77
2018-05-17T18:34:22.097Z,54.25
2018-05-17T18:36:50.533Z,54.31
2018-05-17T18:39:18.982Z,56.23
2018-05-17T18:41:48.201Z,54.44
2018-05-17T18:44:16.614Z,54.91
2018-05-17T18:46:45.848Z,55.67
2018-05-17T18:49:14.295Z,55.95
2018-05-17T18:51:44.161Z,55.14
2018-05-17T18:54:12.578Z,55.49
2018-05-17T18:56:40.974Z,55.59
2018-05-17T18:59:09.434Z,57.04
2018-05-17T19:01:37.876Z,58.05
2018-05-17T19:04:07.045Z,57.86
2018-05-17T19:06:35.436Z,57.38
2018-05-17T19:09:05.386Z,57.08
2018-05-17T19:11:33.782Z,57.50
2018-05-17T19:14:02.251Z,58.38
2018-05-17T19:16:30.731Z,58.42
2018-05-17T19:18:59.226Z,60.35
2018-05-17T19:21:27.629Z,60.57
2018-05-17T19:23:56.024Z,60.61
2018-05-17T19:26:24.475Z,59.41
2018-05-17T19:28:53.478Z,59.21
2018-05-17T19:31:21.864Z,59.18
2018-05-17T19:33:50.236Z,59.91
2018-05-17T19:36:19.381Z,59.79
2018-05-17T19:38:47.790Z,60.14
2018-05-17T19:41:16.962Z,60.49
2018-05-17T19:43:45.347Z,61.61
2018-05-17T19:46:13.749Z,62.35
2018-05-17T19:48:42.140Z,62.71
2018-05-17T19:51:10.626Z,62.63
2018-05-17T19:53:39.773Z,62.76
2018-05-17T19:56:08.225Z,62.25
2018-05-17T19:58:37.370Z,62.02
2018-05-17T20:01:05.837Z,62.59
2018-05-17T20:03:34.246Z,62.45
2018-05-17T20:06:02.698Z,63.14
2018-05-17T20:08:31.080Z,65.90
2018-05-17T20:10:59.459Z,64.15
2018-05-17T20:13:27.858Z,63.92
2018-05-17T20:15:56.256Z,64.41
2018-05-17T20:18:24.666Z,64.10
2018-05-17T20:20:53.066Z,65.53
2018-05-17T20:23:21.686Z,63.72
2018-05-17T20:25:50.169Z,63.17
2018-05-17T20:28:18.642Z,63.28
2018-05-17T20:30:47.010Z,63.42
2018-05-17T20:33:16.211Z,64.13
2018-05-17T20:35:44.817Z,63.25
2018-05-17T20:38:13.226Z,64.20
2018-05-17T20:40:41.800Z,64.19
2018-05-17T20:43:10.196Z,64.53
2018-05-17T20:45:38.606Z,64.37
2018-05-17T20:48:07.086Z,64.49
2018-05-17T20:50:35.491Z,65.03
2018-05-17T20:53:04.651Z,64.52
2018-05-17T20:55:33.065Z,65.83
2018-05-17T20:58:01.479Z,64.21
2018-05-17T21:00:30.723Z,64.17
2018-05-17T21:02:59.077Z,64.14
2018-05-17T21:05:27.503Z,65.48
2018-05-17T21:07:55.969Z,65.04
2018-05-17T21:10:24.376Z,66.12
2018-05-17T21:12:52.819Z,66.85
2018-05-17T21:15:22.025Z,65.96
2018-05-17T21:17:50.440Z,65.73
2018-05-17T21:20:19.825Z,66.72
2018-05-17T21:22:48.237Z,66.66
2018-05-17T21:25:16.655Z,66.88
2018-05-17T21:27:45.844Z,68.13
2018-05-17T21:30:15.021Z,68.46
2018-05-17T21:32:43.425Z,69.14
2018-05-17T21:35:11.836Z,68.99
2018-05-17T21:37:40.307Z,69.68
2018-05-17T21:40:09.579Z,70.49
2018-05-17T21:42:38.769Z,71.38
2018-05-17T21:45:07.193Z,69.69
2018-05-17T21:47:36.370Z,70.11
2018-05-17T21:50:04.779Z,69.96
2018-05-17T21:52:34.114Z,71.95
2018-05-17T21:55:02.550Z,71.95
2018-05-17T21:57:30.957Z,72.51
2018-05-17T22:00:00.118Z,72.33
2018-05-17T22:02:28.512Z,72.08
2018-05-17T22:04:57.667Z,73.15
2018-05-17T22:07:26.080Z,72.19
2018-05-17T22:09:54.486Z,71.84
2018-05-17T22:12:22.877Z,72.07
2018-05-17T22:14:51.301Z,73.40
2018-05-17T22:17:19.702Z,73.06
2018-05-17T22:19:48.169Z,72.83
2018-05-17T22:22:16.567Z,72.42
2018-05-17T22:24:44.958Z,73.39
2018-05-17T22:27:13.342Z,73.43
2018-05-17T22:29:41.962Z,72.83
2018-05-17T22:32:11.130Z,72.83
2018-05-17T22:34:40.069Z,73.79
2018-05-17T22:37:09.638Z,73.80
2018-05-17T22:39:38.040Z,73.91
2018-05-17T22:42:06.429Z,74.33
2018-05-17T22:44:34.829Z,75.25
2018-05-17T22:47:05.721Z,75.98
2018-05-17T22:49:34.221Z,75.77
2018-05-17T22:52:02.659Z,76.58
2018-05-17T22:54:31.039Z,76.82
2018-05-17T22:57:12.110Z,77.21
2018-05-17T22:59:41.245Z,77.57
2018-05-17T23:02:09.656Z,78.46
2018-05-17T23:04:38.013Z,79.42
2018-05-17T23:07:06.405Z,79.55
2018-05-17T23:09:34.813Z,80.30
2018-05-17T23:12:03.213Z,81.29
2018-05-17T23:14:32.368Z,81.13
2018-05-17T23:17:00.783Z,81.29
2018-05-17T23:19:29.155Z,81.61
2018-05-17T23:21:57.530Z,82.26
2018-05-17T23:24:25.897Z,82.65
2018-05-17T23:26:54.273Z,82.57
2018-05-17T23:29:22.652Z,83.41
2018-05-17T23:31:51.038Z,83.27
2018-05-17T23:34:19.423Z,83.61
2018-05-17T23:36:47.798Z,84.06
2018-05-17T23:39:16.181Z,84.36
2018-05-17T23:41:46.439Z,84.81
2018-05-17T23:44:14.831Z,84.84
2018-05-17T23:46:43.292Z,85.12
2018-05-17T23:49:11.697Z,85.00
2018-05-17T23:51:40.090Z,85.20
2018-05-17T23:54:08.468Z,85.99
2018-05-17T23:56:36.841Z,85.70
2018-05-17T23:59:05.232Z,86.25
